createdAt,value
2018-06-09T00:00:27.011Z,19.34
2018-06-09T00:01:26.987Z,19.38
2018-06-09T00:02:26.959Z,19.34
2018-06-09T00:03:26.945Z,19.35
2018-06-09T00:04:26.916Z,19.28
2018-06-09T00:05:26.890Z,19.30
2018-06-09T00:06:26.877Z,19.32
2018-06-09T00:07:26.857Z,19.34
2018-06-09T00:08:26.832Z,19.28
2018-06-09T00:09:26.799Z,19.24
2018-06-09T00:10:26.787Z,19.20
2018-06-09T00:11:26.784Z,19.24
2018-06-09T00:12:26.741Z,19.13
2018-06-09T00:13:26.720Z,19.17
2018-06-09T00:14:26.690Z,19.12
2018-06-09T00:15:26.674Z,19.23
2018-06-09T00:16:26.643Z,19.05
2018-06-09T00:17:26.623Z,19.24
2018-06-09T00:18:26.599Z,19.09
2018-06-09T00:19:26.574Z,19.19
2018-06-09T00:20:26.561Z,19.16
2018-06-09T00:21:26.539Z,19.20
2018-06-09T00:22:26.508Z,19.09
2018-06-09T00:23:26.493Z,19.17
2018-06-09T00:24:26.468Z,19.09
2018-06-09T00:25:26.443Z,19.10
2018-06-09T00:26:26.426Z,19.15
2018-06-09T00:27:26.405Z,19.15
2018-06-09T00:28:26.374Z,19.17
2018-06-09T00:29:26.348Z,19.15
2018-06-09T00:30:26.334Z,19.05
2018-06-09T00:31:26.309Z,19.12
2018-06-09T00:32:26.283Z,19.09
2018-06-09T00:33:26.266Z,19.13
2018-06-09T00:34:26.242Z,18.97
2018-06-09T00:35:26.217Z,19.07
2018-06-09T00:36:26.193Z,19.10
2018-06-09T00:37:26.170Z,19.00
2018-06-09T00:38:26.153Z,19.06
2018-06-09T00:39:26.121Z,19.12
2018-06-09T00:40:26.108Z,18.97
2018-06-09T00:41:26.081Z,19.09
2018-06-09T00:42:26.061Z,18.96
2018-06-09T00:43:26.033Z,18.99
2018-06-09T00:44:26.018Z,19.02
2018-06-09T00:45:25.995Z,19.12
2018-06-09T00:46:25.965Z,18.99
2018-06-09T00:47:25.945Z,18.97
2018-06-09T00:48:25.924Z,18.99
2018-06-09T00:49:25.906Z,18.94
2018-06-09T00:50:25.875Z,18.96
2018-06-09T00:51:25.850Z,19.02
2018-06-09T00:52:25.835Z,18.96
2018-06-09T00:53:25.806Z,19.00
2018-06-09T00:54:25.787Z,18.97
2018-06-09T00:55:25.763Z,18.93
2018-06-09T00:56:25.745Z,18.89
2018-06-09T00:57:25.723Z,18.90
2018-06-09T00:58:25.691Z,18.87
2018-06-09T00:59:25.686Z,18.84
2018-06-09T01:00:25.652Z,18.84
2018-06-09T01:01:25.630Z,18.91
2018-06-09T01:02:25.613Z,18.82
2018-06-09T01:03:25.585Z,18.81
2018-06-09T01:04:25.555Z,18.79
2018-06-09T01:05:25.537Z,18.81
2018-06-09T01:06:25.518Z,18.71
2018-06-09T01:07:25.520Z,18.72
2018-06-09T01:08:25.463Z,18.84
2018-06-09T01:09:25.449Z,18.76
2018-06-09T01:10:25.422Z,18.74
2018-06-09T01:11:25.402Z,18.81
2018-06-09T01:12:25.382Z,18.75
2018-06-09T01:13:25.354Z,18.76
2018-06-09T01:14:25.334Z,18.74
2018-06-09T01:15:25.303Z,18.63
2018-06-09T01:16:25.291Z,18.74
2018-06-09T01:17:25.266Z,18.74
2018-06-09T01:18:25.234Z,18.69
2018-06-09T01:19:25.223Z,18.68
2018-06-09T01:20:25.218Z,18.60
2018-06-09T01:21:25.175Z,18.59
2018-06-09T01:22:25.147Z,18.63
2018-06-09T01:23:25.122Z,18.65
2018-06-09T01:24:25.102Z,18.60
2018-06-09T01:25:25.083Z,18.60
2018-06-09T01:26:25.059Z,18.60
2018-06-09T01:27:25.044Z,18.61
2018-06-09T01:28:25.013Z,18.59
2018-06-09T01:29:24.986Z,18.63
2018-06-09T01:30:24.968Z,18.65
2018-06-09T01:31:24.951Z,18.61
2018-06-09T01:32:24.915Z,18.63
2018-06-09T01:33:24.892Z,18.65
2018-06-09T01:34:24.884Z,18.66
2018-06-09T01:35:24.852Z,18.60
2018-06-09T01:36:24.827Z,18.71
2018-06-09T01:37:24.817Z,18.72
2018-06-09T01:38:24.776Z,18.74
2018-06-09T01:39:24.762Z,18.72
2018-06-09T01:40:24.737Z,18.71
2018-06-09T01:41:24.713Z,18.72
2018-06-09T01:42:24.693Z,18.71
2018-06-09T01:43:24.669Z,18.74
2018-06-09T01:44:24.646Z,18.71
2018-06-09T01:45:24.621Z,18.68
2018-06-09T01:46:24.595Z,18.68
2018-06-09T01:47:24.570Z,18.68
2018-06-09T01:48:24.559Z,18.65
2018-06-09T01:49:24.531Z,18.63
2018-06-09T01:50:24.501Z,18.63
2018-06-09T01:51:24.479Z,18.66
2018-06-09T01:52:24.461Z,18.61
2018-06-09T01:53:24.434Z,18.68
2018-06-09T01:54:24.420Z,18.69
2018-06-09T01:55:24.386Z,18.69
2018-06-09T01:56:24.372Z,18.59
2018-06-09T01:57:24.345Z,18.68
2018-06-09T01:58:24.326Z,18.63
2018-06-09T01:59:24.302Z,18.69
2018-06-09T02:00:24.274Z,18.72
2018-06-09T02:01:24.255Z,18.69
2018-06-09T02:02:24.231Z,18.59
2018-06-09T02:03:24.212Z,18.65
2018-06-09T02:04:24.190Z,18.61
2018-06-09T02:05:24.156Z,18.60
2018-06-09T02:06:24.141Z,18.56
2018-06-09T02:07:24.118Z,18.56
2018-06-09T02:08:24.094Z,18.59
2018-06-09T02:09:24.066Z,18.59
2018-06-09T02:10:24.040Z,18.60
2018-06-09T02:11:24.026Z,18.53
2018-06-09T02:12:24.009Z,18.59
2018-06-09T02:13:23.971Z,18.54
2018-06-09T02:14:23.958Z,18.61
2018-06-09T02:15:23.925Z,18.54
2018-06-09T02:16:23.916Z,18.54
2018-06-09T02:17:23.878Z,18.51
2018-06-09T02:18:23.870Z,18.50
2018-06-09T02:19:23.835Z,18.49
2018-06-09T02:20:23.822Z,18.49
2018-06-09T02:21:23.791Z,18.47
2018-06-09T02:22:23.774Z,18.49
2018-06-09T02:23:23.743Z,18.50
2018-06-09T02:24:23.725Z,18.49
2018-06-09T02:25:23.700Z,18.47
2018-06-09T02:26:23.686Z,18.44
2018-06-09T02:27:23.650Z,18.36
2018-06-09T02:28:23.637Z,18.36
2018-06-09T02:29:23.608Z,18.36
2018-06-09T02:30:23.590Z,18.39
2018-06-09T02:31:23.577Z,18.34
2018-06-09T02:32:23.556Z,18.44
2018-06-09T02:33:23.514Z,18.38
2018-06-09T02:34:23.497Z,18.38
2018-06-09T02:35:23.470Z,18.29
2018-06-09T02:36:23.448Z,18.23
2018-06-09T02:37:23.420Z,18.29
2018-06-09T02:38:23.405Z,18.20
2018-06-09T02:39:23.374Z,18.16
2018-06-09T02:40:23.359Z,18.21
2018-06-09T02:41:23.336Z,18.11
2018-06-09T02:42:23.309Z,18.17
2018-06-09T02:43:23.282Z,18.14
2018-06-09T02:44:23.266Z,18.11
2018-06-09T02:45:23.248Z,18.11
2018-06-09T02:46:23.216Z,18.13
2018-06-09T02:47:23.188Z,18.14
2018-06-09T02:48:23.174Z,18.14
2018-06-09T02:49:23.145Z,18.05
2018-06-09T02:50:23.120Z,18.02
2018-06-09T02:51:23.097Z,18.10
2018-06-09T02:52:23.083Z,18.10
2018-06-09T02:53:23.056Z,18.02
2018-06-09T02:54:23.024Z,17.90
2018-06-09T02:55:23.004Z,17.87
2018-06-09T02:56:22.983Z,17.84
2018-06-09T02:57:22.960Z,17.71
2018-06-09T02:58:22.941Z,17.79
2018-06-09T02:59:22.916Z,17.60
2018-06-09T03:00:22.887Z,17.58
2018-06-09T03:01:22.874Z,17.58
2018-06-09T03:02:22.881Z,17.57
2018-06-09T03:03:22.864Z,17.62
2018-06-09T03:04:22.853Z,17.50
2018-06-09T03:05:22.771Z,17.45
2018-06-09T03:06:22.749Z,17.39
2018-06-09T03:07:22.730Z,17.49
2018-06-09T03:08:22.696Z,17.42
2018-06-09T03:09:22.673Z,17.49
2018-06-09T03:10:22.662Z,17.46
2018-06-09T03:11:22.632Z,17.50
2018-06-09T03:12:22.608Z,17.55
2018-06-09T03:13:22.585Z,17.60
2018-06-09T03:14:22.557Z,17.63
2018-06-09T03:15:22.535Z,17.63
2018-06-09T03:16:22.516Z,17.74
2018-06-09T03:17:22.485Z,17.71
2018-06-09T03:18:22.474Z,17.73
2018-06-09T03:19:22.450Z,17.63
2018-06-09T03:20:22.414Z,17.58
2018-06-09T03:21:22.389Z,17.50
2018-06-09T03:22:22.378Z,17.54
2018-06-09T03:23:22.343Z,17.55
2018-06-09T03:24:22.329Z,17.57
2018-06-09T03:25:22.299Z,17.65
2018-06-09T03:26:22.279Z,17.43
2018-06-09T03:27:22.254Z,17.46
2018-06-09T03:28:22.233Z,17.46
2018-06-09T03:29:22.216Z,17.42
2018-06-09T03:30:22.183Z,17.46
2018-06-09T03:31:22.162Z,17.45
2018-06-09T03:32:22.178Z,17.40
2018-06-09T03:33:22.126Z,17.47
2018-06-09T03:34:22.088Z,17.39
2018-06-09T03:35:22.071Z,17.47
2018-06-09T03:36:22.045Z,17.63
2018-06-09T03:37:22.017Z,17.60
2018-06-09T03:38:21.997Z,17.66
2018-06-09T03:39:21.991Z,17.63
2018-06-09T03:40:21.952Z,17.76
2018-06-09T03:41:21.925Z,17.73
2018-06-09T03:42:21.912Z,17.65
2018-06-09T03:43:21.905Z,17.77
2018-06-09T03:44:21.862Z,17.63
2018-06-09T03:45:21.830Z,17.55
2018-06-09T03:46:21.811Z,17.62
2018-06-09T03:47:21.785Z,17.60
2018-06-09T03:48:21.763Z,17.60
2018-06-09T03:49:21.735Z,17.43
2018-06-09T03:50:21.719Z,17.45
2018-06-09T03:51:21.689Z,17.45
2018-06-09T03:52:21.673Z,17.40
2018-06-09T03:53:21.645Z,17.46
2018-06-09T03:54:21.619Z,17.43
2018-06-09T03:55:21.593Z,17.49
2018-06-09T03:56:21.587Z,17.46
2018-06-09T03:57:21.555Z,17.40
2018-06-09T03:58:21.521Z,17.39
2018-06-09T03:59:21.504Z,17.36
2018-06-09T04:00:21.484Z,17.42
2018-06-09T04:01:21.466Z,17.32
2018-06-09T04:02:21.435Z,17.40
2018-06-09T04:03:21.413Z,17.36
2018-06-09T04:04:21.381Z,17.36
2018-06-09T04:05:21.357Z,17.32
2018-06-09T04:06:21.346Z,17.30
2018-06-09T04:07:21.319Z,17.32
2018-06-09T04:08:21.290Z,17.38
2018-06-09T04:09:21.272Z,17.39
2018-06-09T04:10:21.244Z,17.38
2018-06-09T04:11:21.231Z,17.38
2018-06-09T04:12:21.196Z,17.39
2018-06-09T04:13:21.181Z,17.40
2018-06-09T04:14:21.152Z,17.46
2018-06-09T04:15:21.125Z,17.32
2018-06-09T04:16:21.105Z,17.40
2018-06-09T04:17:21.080Z,17.39
2018-06-09T04:18:21.057Z,17.46
2018-06-09T04:19:21.028Z,17.45
2018-06-09T04:20:21.014Z,17.39
2018-06-09T04:21:20.990Z,17.31
2018-06-09T04:22:20.960Z,17.52
2018-06-09T04:23:20.945Z,17.39
2018-06-09T04:24:20.919Z,17.40
2018-06-09T04:25:20.895Z,17.39
2018-06-09T04:26:20.868Z,17.38
2018-06-09T04:27:20.888Z,17.40
2018-06-09T04:28:20.856Z,17.36
2018-06-09T04:29:20.800Z,17.32
2018-06-09T04:30:20.781Z,17.38
2018-06-09T04:31:20.752Z,17.43
2018-06-09T04:32:20.729Z,17.45
2018-06-09T04:33:20.720Z,17.40
2018-06-09T04:34:20.676Z,17.40
2018-06-09T04:35:20.655Z,17.46
2018-06-09T04:36:20.639Z,17.43
2018-06-09T04:37:20.605Z,17.40
2018-06-09T04:38:20.590Z,17.45
2018-06-09T04:39:20.567Z,17.52
2018-06-09T04:40:20.537Z,17.42
2018-06-09T04:41:20.513Z,17.45
2018-06-09T04:42:20.494Z,17.46
2018-06-09T04:43:20.472Z,17.45
2018-06-09T04:44:20.449Z,17.46
2018-06-09T04:45:20.424Z,17.50
2018-06-09T04:46:20.409Z,17.38
2018-06-09T04:47:20.380Z,17.47
2018-06-09T04:48:20.359Z,17.43
2018-06-09T04:49:20.321Z,17.45
2018-06-09T04:50:20.307Z,17.45
2018-06-09T04:51:20.279Z,17.46
2018-06-09T04:52:20.269Z,17.50
2018-06-09T04:53:20.241Z,17.60
2018-06-09T04:54:20.205Z,17.69
2018-06-09T04:55:20.194Z,17.69
2018-06-09T04:56:20.160Z,17.79
2018-06-09T04:57:20.151Z,17.86
2018-06-09T04:58:20.112Z,17.74
2018-06-09T04:59:20.150Z,17.77
2018-06-09T05:00:20.064Z,17.77
2018-06-09T05:01:20.040Z,17.74
2018-06-09T05:02:20.025Z,17.73
2018-06-09T05:03:20.007Z,17.71
2018-06-09T05:04:19.973Z,17.65
2018-06-09T05:05:19.949Z,17.60
2018-06-09T05:06:19.938Z,17.58
2018-06-09T05:07:19.909Z,17.54
2018-06-09T05:08:19.880Z,17.60
2018-06-09T05:09:19.862Z,17.74
2018-06-09T05:10:19.850Z,17.76
2018-06-09T05:11:19.814Z,17.69
2018-06-09T05:12:19.797Z,17.81
2018-06-09T05:13:19.762Z,17.74
2018-06-09T05:14:19.771Z,17.73
2018-06-09T05:15:19.716Z,17.73
2018-06-09T05:16:19.700Z,17.76
2018-06-09T05:17:20.436Z,17.66
2018-06-09T05:18:19.651Z,17.74
2018-06-09T05:19:19.627Z,17.73
2018-06-09T05:20:19.603Z,17.76
2018-06-09T05:21:19.578Z,17.74
2018-06-09T05:22:19.552Z,17.79
2018-06-09T05:23:19.526Z,17.80
2018-06-09T05:24:19.511Z,17.80
2018-06-09T05:25:19.492Z,17.80
2018-06-09T05:26:19.476Z,17.83
2018-06-09T05:27:19.435Z,17.87
2018-06-09T05:28:19.415Z,17.90
2018-06-09T05:29:19.395Z,18.03
2018-06-09T05:30:19.410Z,18.14
2018-06-09T05:31:19.339Z,18.11
2018-06-09T05:32:19.316Z,18.13
2018-06-09T05:33:19.303Z,18.24
2018-06-09T05:34:19.275Z,18.16
2018-06-09T05:35:19.245Z,18.16
2018-06-09T05:36:19.225Z,18.16
2018-06-09T05:37:19.215Z,18.24
2018-06-09T05:38:19.177Z,18.29
2018-06-09T05:39:19.157Z,18.36
2018-06-09T05:40:19.225Z,18.34
2018-06-09T05:41:19.108Z,18.36
2018-06-09T05:42:19.092Z,18.32
2018-06-09T05:43:19.066Z,18.29
2018-06-09T05:44:19.050Z,18.32
2018-06-09T05:45:19.025Z,18.34
2018-06-09T05:46:18.996Z,18.34
2018-06-09T05:47:18.970Z,18.45
2018-06-09T05:48:18.950Z,18.44
2018-06-09T05:49:18.926Z,18.56
2018-06-09T05:50:18.901Z,18.56
2018-06-09T05:51:18.885Z,18.65
2018-06-09T05:52:18.853Z,18.71
2018-06-09T05:53:18.828Z,18.79
2018-06-09T05:54:18.813Z,18.78
2018-06-09T05:55:18.782Z,18.74
2018-06-09T05:56:18.768Z,18.74
2018-06-09T05:57:18.750Z,18.71
2018-06-09T05:58:18.714Z,18.75
2018-06-09T05:59:18.700Z,18.76
2018-06-09T06:00:18.669Z,18.75
2018-06-09T06:01:18.647Z,18.78
2018-06-09T06:02:18.628Z,18.71
2018-06-09T06:03:18.605Z,18.71
2018-06-09T06:04:18.581Z,18.71
2018-06-09T06:05:18.558Z,18.87
2018-06-09T06:06:18.544Z,18.87
2018-06-09T06:07:18.516Z,18.78
2018-06-09T06:08:18.496Z,18.90
2018-06-09T06:09:18.463Z,18.94
2018-06-09T06:10:18.444Z,19.10
2018-06-09T06:11:18.418Z,19.06
2018-06-09T06:12:18.399Z,19.05
2018-06-09T06:13:18.373Z,19.15
2018-06-09T06:14:18.357Z,19.17
2018-06-09T06:15:18.324Z,19.25
2018-06-09T06:16:18.312Z,19.32
2018-06-09T06:17:18.285Z,19.23
2018-06-09T06:18:18.259Z,19.25
2018-06-09T06:19:18.239Z,19.09
2018-06-09T06:20:18.214Z,19.16
2018-06-09T06:21:18.219Z,19.05
2018-06-09T06:22:18.165Z,19.17
2018-06-09T06:23:18.151Z,19.32
2018-06-09T06:24:18.120Z,19.15
2018-06-09T06:25:18.101Z,19.34
2018-06-09T06:26:18.078Z,19.34
2018-06-09T06:27:18.054Z,19.31
2018-06-09T06:28:18.042Z,19.49
2018-06-09T06:29:18.016Z,19.42
2018-06-09T06:30:17.987Z,19.47
2018-06-09T06:31:17.968Z,19.42
2018-06-09T06:32:17.944Z,19.46
2018-06-09T06:33:17.920Z,19.45
2018-06-09T06:34:17.902Z,19.46
2018-06-09T06:35:17.875Z,19.49
2018-06-09T06:36:17.855Z,19.52
2018-06-09T06:37:17.829Z,19.52
2018-06-09T06:38:17.812Z,19.67
2018-06-09T06:39:17.788Z,19.60
2018-06-09T06:40:17.767Z,19.55
2018-06-09T06:41:17.738Z,19.60
2018-06-09T06:42:17.720Z,19.57
2018-06-09T06:43:17.705Z,19.64
2018-06-09T06:44:17.670Z,19.60
2018-06-09T06:45:17.646Z,19.63
2018-06-09T06:46:17.633Z,19.61
2018-06-09T06:47:17.626Z,19.53
2018-06-09T06:48:17.582Z,19.50
2018-06-09T06:49:17.567Z,19.55
2018-06-09T06:50:17.581Z,19.65
2018-06-09T06:51:17.512Z,19.60
2018-06-09T06:52:17.496Z,19.60
2018-06-09T06:53:17.477Z,19.65
2018-06-09T06:54:17.446Z,19.60
2018-06-09T06:55:17.426Z,19.70
2018-06-09T06:56:17.415Z,19.60
2018-06-09T06:57:17.379Z,19.56
2018-06-09T06:58:17.371Z,19.61
2018-06-09T06:59:17.333Z,19.67
2018-06-09T07:00:17.334Z,19.75
2018-06-09T07:01:17.291Z,19.75
2018-06-09T07:02:17.279Z,19.87
2018-06-09T07:03:17.252Z,20.00
2018-06-09T07:04:17.232Z,20.00
2018-06-09T07:05:17.203Z,20.08
2018-06-09T07:06:17.189Z,20.05
2018-06-09T07:07:17.166Z,19.95
2018-06-09T07:08:17.139Z,19.98
2018-06-09T07:09:17.110Z,19.90
2018-06-09T07:10:17.105Z,19.95
2018-06-09T07:11:17.076Z,19.93
2018-06-09T07:12:17.046Z,20.05
2018-06-09T07:13:17.024Z,19.95
2018-06-09T07:14:17.013Z,20.04
2018-06-09T07:15:16.980Z,20.05
2018-06-09T07:16:16.992Z,20.04
2018-06-09T07:17:16.933Z,20.10
2018-06-09T07:18:16.919Z,20.01
2018-06-09T07:19:16.928Z,20.01
2018-06-09T07:20:16.876Z,20.07
2018-06-09T07:21:16.845Z,20.15
2018-06-09T07:22:16.836Z,20.18
2018-06-09T07:23:16.801Z,20.22
2018-06-09T07:24:16.794Z,20.22
2018-06-09T07:25:16.757Z,20.37
2018-06-09T07:26:16.741Z,20.42
2018-06-09T07:27:16.720Z,20.38
2018-06-09T07:28:16.704Z,20.46
2018-06-09T07:29:16.673Z,20.49
2018-06-09T07:30:16.652Z,20.41
2018-06-09T07:31:16.624Z,20.35
2018-06-09T07:32:16.608Z,20.29
2018-06-09T07:33:16.591Z,20.34
2018-06-09T07:34:16.558Z,20.38
2018-06-09T07:35:16.543Z,20.38
2018-06-09T07:36:16.517Z,20.58
2018-06-09T07:37:16.498Z,20.63
2018-06-09T07:38:16.482Z,20.67
2018-06-09T07:39:16.450Z,20.68
2018-06-09T07:40:16.435Z,20.63
2018-06-09T07:41:16.411Z,20.75
2018-06-09T07:42:16.383Z,20.68
2018-06-09T07:43:16.358Z,20.75
2018-06-09T07:44:16.345Z,20.74
2018-06-09T07:45:16.338Z,20.64
2018-06-09T07:46:16.297Z,20.58
2018-06-09T07:47:16.280Z,20.60
2018-06-09T07:48:16.250Z,20.63
2018-06-09T07:49:16.228Z,20.67
2018-06-09T07:50:16.215Z,20.68
2018-06-09T07:51:16.202Z,20.61
2018-06-09T07:52:16.169Z,20.53
2018-06-09T07:53:16.141Z,20.56
2018-06-09T07:54:16.126Z,20.61
2018-06-09T07:55:16.106Z,20.79
2018-06-09T07:56:16.082Z,20.90
2018-06-09T07:57:16.058Z,20.98
2018-06-09T07:58:16.048Z,20.98
2018-06-09T07:59:16.037Z,21.15
2018-06-09T08:00:15.985Z,21.01
2018-06-09T08:01:15.964Z,21.09
2018-06-09T08:02:15.950Z,21.16
2018-06-09T08:03:15.919Z,21.16
2018-06-09T08:04:15.908Z,21.18
2018-06-09T08:05:15.880Z,21.25
2018-06-09T08:06:15.864Z,21.28
2018-06-09T08:07:15.833Z,21.28
2018-06-09T08:08:15.815Z,21.33
2018-06-09T08:09:15.792Z,21.34
2018-06-09T08:10:15.773Z,21.30
2018-06-09T08:11:15.749Z,21.45
2018-06-09T08:12:15.724Z,21.49
2018-06-09T08:13:15.709Z,21.61
2018-06-09T08:14:15.688Z,21.66
2018-06-09T08:15:15.658Z,21.73
2018-06-09T08:16:15.646Z,21.85
2018-06-09T08:17:15.622Z,21.82
2018-06-09T08:18:15.598Z,21.99
2018-06-09T08:19:15.573Z,21.96
2018-06-09T08:20:15.562Z,22.07
2018-06-09T08:21:15.533Z,22.22
2018-06-09T08:22:15.514Z,22.20
2018-06-09T08:23:15.496Z,22.16
2018-06-09T08:24:15.479Z,22.18
2018-06-09T08:25:15.454Z,22.18
2018-06-09T08:26:15.433Z,22.24
2018-06-09T08:27:15.419Z,22.33
2018-06-09T08:28:15.382Z,22.23
2018-06-09T08:29:15.366Z,22.30
2018-06-09T08:30:15.345Z,22.39
2018-06-09T08:31:15.333Z,22.48
2018-06-09T08:32:15.311Z,22.42
2018-06-09T08:33:15.280Z,22.34
2018-06-09T08:34:15.263Z,22.29
2018-06-09T08:35:15.243Z,22.14
2018-06-09T08:36:15.252Z,22.16
2018-06-09T08:37:15.201Z,22.20
2018-06-09T08:38:15.179Z,22.31
2018-06-09T08:39:15.167Z,22.41
2018-06-09T08:40:15.136Z,22.31
2018-06-09T08:41:15.112Z,22.33
2018-06-09T08:42:15.100Z,22.33
2018-06-09T08:43:15.076Z,22.33
2018-06-09T08:44:15.055Z,22.33
2018-06-09T08:45:15.037Z,22.31
2018-06-09T08:46:15.088Z,22.34
2018-06-09T08:47:14.999Z,22.29
2018-06-09T08:48:14.976Z,22.38
2018-06-09T08:49:14.951Z,22.39
2018-06-09T08:50:14.948Z,22.44
2018-06-09T08:51:14.911Z,22.46
2018-06-09T08:52:14.887Z,22.52
2018-06-09T08:53:14.867Z,22.51
2018-06-09T08:54:14.852Z,22.51
2018-06-09T08:55:14.833Z,22.61
2018-06-09T08:56:14.802Z,22.73
2018-06-09T08:57:14.786Z,22.91
2018-06-09T08:58:14.769Z,22.82
2018-06-09T08:59:14.751Z,22.96
2018-06-09T09:00:14.727Z,22.97
2018-06-09T09:01:14.706Z,23.03
2018-06-09T09:02:14.682Z,23.12
2018-06-09T09:03:14.683Z,23.22
2018-06-09T09:04:14.647Z,23.10
2018-06-09T09:05:14.632Z,23.19
2018-06-09T09:06:14.605Z,23.01
2018-06-09T09:07:14.581Z,23.12
2018-06-09T09:08:14.564Z,23.18
2018-06-09T09:09:14.545Z,23.14
2018-06-09T09:10:14.522Z,23.18
2018-06-09T09:11:14.497Z,23.18
2018-06-09T09:12:14.488Z,23.12
2018-06-09T09:13:14.464Z,22.97
2018-06-09T09:14:14.440Z,23.15
2018-06-09T09:15:14.418Z,23.09
2018-06-09T09:16:14.402Z,22.99
2018-06-09T09:17:14.385Z,22.85
2018-06-09T09:18:14.362Z,23.04
2018-06-09T09:19:14.339Z,23.14
2018-06-09T09:20:14.339Z,23.25
2018-06-09T09:21:14.302Z,23.34
2018-06-09T09:22:14.280Z,23.37
2018-06-09T09:23:14.256Z,23.34
2018-06-09T09:24:14.297Z,23.44
2018-06-09T09:25:14.218Z,23.40
2018-06-09T09:26:14.201Z,23.55
2018-06-09T09:27:14.187Z,23.62
2018-06-09T09:28:14.157Z,23.52
2018-06-09T09:29:14.141Z,23.48
2018-06-09T09:30:14.140Z,23.41
2018-06-09T09:31:14.103Z,23.42
2018-06-09T09:32:14.162Z,23.44
2018-06-09T09:33:14.060Z,23.44
2018-06-09T09:34:14.044Z,23.53
2018-06-09T09:35:14.015Z,23.40
2018-06-09T09:36:14.003Z,23.53
2018-06-09T09:37:13.981Z,23.57
2018-06-09T09:38:13.960Z,23.84
2018-06-09T09:39:13.945Z,23.94
2018-06-09T09:40:13.922Z,24.02
2018-06-09T09:41:13.902Z,24.04
2018-06-09T09:42:13.878Z,24.12
2018-06-09T09:43:13.861Z,24.14
2018-06-09T09:44:13.841Z,24.02
2018-06-09T09:45:13.824Z,24.07
2018-06-09T09:46:13.802Z,23.93
2018-06-09T09:47:13.780Z,24.03
2018-06-09T09:48:13.762Z,23.97
2018-06-09T09:49:13.742Z,23.99
2018-06-09T09:50:13.730Z,24.09
2018-06-09T09:51:13.712Z,24.09
2018-06-09T09:52:13.682Z,24.09
2018-06-09T09:53:13.664Z,24.30
2018-06-09T09:54:13.662Z,24.08
2018-06-09T09:55:13.631Z,24.02
2018-06-09T09:56:13.607Z,24.14
2018-06-09T09:57:13.590Z,24.09
2018-06-09T09:58:13.570Z,24.24
2018-06-09T09:59:13.553Z,24.29
2018-06-09T10:00:13.526Z,24.42
2018-06-09T10:01:13.517Z,24.44
2018-06-09T10:02:13.494Z,24.37
2018-06-09T10:03:13.474Z,24.54
2018-06-09T10:04:13.451Z,24.42
2018-06-09T10:05:13.438Z,24.39
2018-06-09T10:06:13.422Z,24.46
2018-06-09T10:07:13.392Z,24.58
2018-06-09T10:08:13.383Z,24.54
2018-06-09T10:09:13.363Z,24.52
2018-06-09T10:10:13.346Z,24.42
2018-06-09T10:11:13.319Z,24.52
2018-06-09T10:12:13.305Z,24.46
2018-06-09T10:13:13.285Z,24.42
2018-06-09T10:14:13.270Z,24.48
2018-06-09T10:15:13.241Z,24.52
2018-06-09T10:16:13.231Z,24.56
2018-06-09T10:17:13.211Z,24.51
2018-06-09T10:18:13.185Z,24.56
2018-06-09T10:19:13.182Z,24.46
2018-06-09T10:20:13.156Z,24.59
2018-06-09T10:21:13.137Z,24.42
2018-06-09T10:22:13.117Z,24.34
2018-06-09T10:23:13.100Z,24.45
2018-06-09T10:24:13.074Z,24.51
2018-06-09T10:25:13.055Z,24.59
2018-06-09T10:26:13.085Z,24.75
2018-06-09T10:27:13.022Z,24.86
2018-06-09T10:28:13.002Z,24.78
2018-06-09T10:29:12.983Z,24.92
2018-06-09T10:30:12.972Z,25.01
2018-06-09T10:31:12.953Z,25.05
2018-06-09T10:32:12.926Z,25.14
2018-06-09T10:33:12.914Z,25.11
2018-06-09T10:34:12.896Z,25.02
2018-06-09T10:35:12.873Z,24.93
2018-06-09T10:36:12.897Z,25.11
2018-06-09T10:37:12.886Z,25.26
2018-06-09T10:38:12.827Z,25.19
2018-06-09T10:39:12.831Z,25.02
2018-06-09T10:40:12.781Z,25.24
2018-06-09T10:41:12.759Z,25.17
2018-06-09T10:42:12.746Z,25.23
2018-06-09T10:43:12.725Z,25.26
2018-06-09T10:44:12.711Z,25.34
2018-06-09T10:45:12.717Z,25.19
2018-06-09T10:46:12.679Z,25.27
2018-06-09T10:47:12.653Z,25.29
2018-06-09T10:48:12.650Z,25.04
2018-06-09T10:49:12.615Z,25.22
2018-06-09T10:50:12.608Z,25.29
2018-06-09T10:51:12.582Z,25.33
2018-06-09T10:52:12.562Z,25.38
2018-06-09T10:53:12.543Z,25.38
2018-06-09T10:54:12.537Z,25.22
2018-06-09T10:55:12.507Z,25.34
2018-06-09T10:56:12.492Z,25.39
2018-06-09T10:57:12.471Z,25.32
2018-06-09T10:58:12.471Z,25.39
2018-06-09T10:59:12.434Z,25.37
2018-06-09T11:00:12.428Z,25.47
2018-06-09T11:01:12.401Z,25.51
2018-06-09T11:02:12.386Z,25.29
2018-06-09T11:03:12.363Z,25.26
2018-06-09T11:04:12.349Z,25.07
2018-06-09T11:05:12.327Z,25.24
2018-06-09T11:06:12.313Z,25.24
2018-06-09T11:07:12.290Z,25.49
2018-06-09T11:08:12.278Z,25.48
2018-06-09T11:09:12.254Z,25.60
2018-06-09T11:10:12.243Z,25.64
2018-06-09T11:11:12.216Z,25.62
2018-06-09T11:12:12.208Z,25.54
2018-06-09T11:13:12.190Z,25.56
2018-06-09T11:14:12.163Z,25.48
2018-06-09T11:15:12.158Z,25.34
2018-06-09T11:16:12.132Z,25.44
2018-06-09T11:17:12.116Z,25.32
2018-06-09T11:18:12.099Z,25.37
2018-06-09T11:19:12.074Z,25.48
2018-06-09T11:20:12.063Z,25.49
2018-06-09T11:21:12.047Z,25.62
2018-06-09T11:22:12.020Z,25.56
2018-06-09T11:23:11.999Z,25.54
2018-06-09T11:24:11.990Z,25.38
2018-06-09T11:25:11.974Z,25.38
2018-06-09T11:26:11.946Z,25.38
2018-06-09T11:27:11.932Z,25.49
2018-06-09T11:28:11.921Z,25.60
2018-06-09T11:29:11.892Z,25.69
2018-06-09T11:30:11.883Z,25.81
2018-06-09T11:31:11.864Z,25.82
2018-06-09T11:32:11.861Z,25.85
2018-06-09T11:33:11.823Z,25.86
2018-06-09T11:34:11.807Z,25.91
2018-06-09T11:35:11.795Z,25.79
2018-06-09T11:36:11.767Z,25.91
2018-06-09T11:37:11.757Z,25.93
2018-06-09T11:38:11.733Z,25.99
2018-06-09T11:39:11.723Z,25.93
2018-06-09T11:40:11.698Z,25.97
2018-06-09T11:41:11.685Z,26.03
2018-06-09T11:42:11.661Z,26.01
2018-06-09T11:43:11.642Z,26.04
2018-06-09T11:44:11.637Z,26.17
2018-06-09T11:45:11.610Z,26.22
2018-06-09T11:46:11.594Z,26.34
2018-06-09T11:47:11.652Z,26.54
2018-06-09T11:48:11.560Z,27.06
2018-06-09T11:49:11.538Z,27.72
2018-06-09T11:50:11.527Z,28.39
2018-06-09T11:51:11.501Z,28.67
2018-06-09T11:52:11.500Z,29.24
2018-06-09T11:53:11.467Z,29.61
2018-06-09T11:54:11.458Z,29.84
2018-06-09T11:55:11.442Z,29.98
2018-06-09T11:56:11.431Z,30.22
2018-06-09T11:57:11.409Z,30.51
2018-06-09T11:58:11.393Z,30.63
2018-06-09T11:59:11.378Z,30.66
2018-06-09T12:00:11.357Z,30.52
2018-06-09T12:01:11.338Z,30.91
2018-06-09T12:02:11.331Z,30.63
2018-06-09T12:03:11.305Z,30.25
2018-06-09T12:04:11.297Z,29.77
2018-06-09T12:05:11.283Z,29.24
2018-06-09T12:06:11.265Z,29.08
2018-06-09T12:07:11.250Z,28.64
2018-06-09T12:08:11.242Z,28.24
2018-06-09T12:09:11.219Z,27.91
2018-06-09T12:10:11.195Z,27.61
2018-06-09T12:11:11.189Z,27.51
2018-06-09T12:12:11.175Z,27.45
2018-06-09T12:13:11.154Z,27.18
2018-06-09T12:14:11.137Z,26.96
2018-06-09T12:15:11.125Z,27.23
2018-06-09T12:16:11.104Z,27.12
2018-06-09T12:17:11.137Z,26.86
2018-06-09T12:18:11.070Z,27.13
2018-06-09T12:19:11.059Z,27.45
2018-06-09T12:20:11.043Z,27.51
2018-06-09T12:21:11.028Z,27.43
2018-06-09T12:22:11.005Z,27.57
2018-06-09T12:23:10.988Z,27.81
2018-06-09T12:24:10.983Z,28.06
2018-06-09T12:25:10.955Z,28.06
2018-06-09T12:26:10.949Z,28.27
2018-06-09T12:27:10.928Z,28.30
2018-06-09T12:28:10.929Z,28.30
2018-06-09T12:29:10.895Z,28.14
2018-06-09T12:30:10.884Z,28.06
2018-06-09T12:31:10.861Z,28.06
2018-06-09T12:32:10.851Z,28.11
2018-06-09T12:33:10.838Z,27.83
2018-06-09T12:34:10.813Z,27.81
2018-06-09T12:35:10.805Z,27.81
2018-06-09T12:36:10.785Z,27.93
2018-06-09T12:37:10.775Z,28.05
2018-06-09T12:38:10.752Z,28.09
2018-06-09T12:39:10.740Z,28.33
2018-06-09T12:40:10.723Z,28.36
2018-06-09T12:41:10.700Z,28.55
2018-06-09T12:42:10.694Z,28.46
2018-06-09T12:43:10.669Z,28.41
2018-06-09T12:44:10.655Z,28.16
2018-06-09T12:45:10.644Z,28.05
2018-06-09T12:46:10.624Z,28.03
2018-06-09T12:47:10.610Z,28.12
2018-06-09T12:48:10.601Z,28.09
2018-06-09T12:49:10.575Z,28.08
2018-06-09T12:50:10.572Z,28.02
2018-06-09T12:51:10.545Z,28.06
2018-06-09T12:52:10.539Z,27.99